createdAt,value
2023-11-28T00:01:22.438Z,77732.31
2023-11-28T00:03:48.849Z,77730.25
2023-11-28T00:06:17.019Z,77732.31
2023-11-28T00:08:43.418Z,77738.56
2023-11-28T00:11:09.882Z,77736.47
2023-11-28T00:13:36.525Z,77746.88
2023-11-28T00:16:05.992Z,77744.78
2023-11-28T00:18:34.746Z,77753.09
2023-11-28T00:21:01.311Z,77753.09
2023-11-28T00:23:27.789Z,77761.41
2023-11-28T00:25:54.335Z,77765.56
2023-11-28T00:28:20.749Z,77765.56
2023-11-28T00:30:47.200Z,77782.19
2023-11-28T00:33:13.690Z,77778.03
2023-11-28T00:35:40.070Z,77788.44
2023-11-28T00:38:07.069Z,77792.59
2023-11-28T00:40:33.917Z,77800.91
2023-11-28T00:43:00.969Z,77815.44
2023-11-28T00:45:27.714Z,77811.28
2023-11-28T00:47:56.826Z,77821.69
2023-11-28T00:50:23.441Z,77825.84
2023-11-28T00:52:50.327Z,77829.97
2023-11-28T00:55:17.523Z,77832.06
2023-11-28T00:57:45.063Z,77829.97
2023-11-28T01:00:12.343Z,77854.91
2023-11-28T01:02:39.113Z,77861.16
2023-11-28T01:05:06.235Z,77863.22
2023-11-28T01:07:32.818Z,77869.47
2023-11-28T01:09:59.195Z,77879.84
2023-11-28T01:12:25.607Z,77886.09
2023-11-28T01:14:52.039Z,77881.94
2023-11-28T01:17:18.615Z,77879.84
2023-11-28T01:19:45.196Z,77900.63
2023-11-28T01:22:11.832Z,77904.78
2023-11-28T01:24:39.060Z,77908.94
2023-11-28T01:27:05.886Z,77923.50
2023-11-28T01:29:32.423Z,77911.03
2023-11-28T01:31:58.892Z,77931.81
2023-11-28T01:34:25.390Z,77938.03
2023-11-28T01:36:52.108Z,77948.44
2023-11-28T01:39:18.826Z,77962.97
2023-11-28T01:41:48.798Z,77965.06
2023-11-28T01:44:16.329Z,77971.28
2023-11-28T01:46:43.382Z,77973.38
2023-11-28T01:49:10.394Z,77987.91
2023-11-28T01:51:37.997Z,77996.22
2023-11-28T01:54:06.456Z,77992.06
2023-11-28T01:56:37.533Z,78000.38
2023-11-28T01:59:05.860Z,77992.06
2023-11-28T02:01:32.798Z,78006.63
2023-11-28T02:03:59.325Z,78008.69
2023-11-28T02:06:25.907Z,78000.38
2023-11-28T02:08:52.535Z,78006.63
2023-11-28T02:11:18.953Z,78010.78
2023-11-28T02:13:45.356Z,78017.00
2023-11-28T02:16:16.834Z,78037.78
2023-11-28T02:18:44.372Z,78033.63
2023-11-28T02:21:11.921Z,78039.84
2023-11-28T02:23:38.757Z,78046.09
2023-11-28T02:26:14.096Z,78062.72
2023-11-28T02:28:40.593Z,78066.88
2023-11-28T02:31:07.201Z,78050.25
2023-11-28T02:33:33.660Z,78062.72
2023-11-28T02:36:00.096Z,78075.19
2023-11-28T02:38:26.515Z,78075.19
2023-11-28T02:40:52.961Z,78071.03
2023-11-28T02:43:19.351Z,78075.19
2023-11-28T02:45:45.972Z,78077.25
2023-11-28T02:48:12.977Z,78064.78
2023-11-28T02:50:39.701Z,78071.03
2023-11-28T02:53:06.346Z,78071.03
2023-11-28T02:55:32.833Z,78073.09
2023-11-28T02:58:01.956Z,78079.34
2023-11-28T03:00:28.657Z,78083.50
2023-11-28T03:02:55.289Z,78095.97
2023-11-28T03:05:21.888Z,78106.34
2023-11-28T03:07:48.356Z,78112.59
2023-11-28T03:10:14.768Z,78127.13
2023-11-28T03:12:41.306Z,78139.59
2023-11-28T03:15:08.050Z,78179.09
2023-11-28T03:17:34.505Z,78187.41
2023-11-28T03:20:01.044Z,78199.88
2023-11-28T03:22:27.527Z,78218.56
2023-11-28T03:24:53.999Z,78237.28
2023-11-28T03:27:20.455Z,78251.81
2023-11-28T03:29:46.833Z,78272.59
2023-11-28T03:32:13.330Z,78283.00
2023-11-28T03:34:40.696Z,78295.47
2023-11-28T03:37:08.108Z,78297.53
2023-11-28T03:39:34.585Z,78307.94
2023-11-28T03:42:00.977Z,78314.16
2023-11-28T03:44:27.468Z,78307.94
2023-11-28T03:46:53.956Z,78320.41
2023-11-28T03:49:20.389Z,78334.94
2023-11-28T03:51:46.779Z,78349.50
2023-11-28T03:54:13.164Z,78355.72
2023-11-28T03:56:43.003Z,78357.81
2023-11-28T03:59:09.504Z,78345.34
2023-11-28T04:01:36.217Z,78357.81
2023-11-28T04:04:03.084Z,78357.81
2023-11-28T04:06:29.594Z,78357.81
2023-11-28T04:08:56.113Z,78372.34
2023-11-28T04:11:22.494Z,78378.59
2023-11-28T04:13:49.146Z,78372.34
2023-11-28T04:16:19.345Z,78395.22
2023-11-28T04:18:47.706Z,78397.28
2023-11-28T04:21:17.715Z,78401.44
2023-11-28T04:23:44.631Z,78416.00
2023-11-28T04:26:11.220Z,78420.16
2023-11-28T04:28:40.173Z,78411.84
2023-11-28T04:31:06.933Z,78420.16
2023-11-28T04:33:33.403Z,78413.91
2023-11-28T04:35:59.949Z,78418.06
2023-11-28T04:38:26.387Z,78426.38
2023-11-28T04:40:52.906Z,78436.78
2023-11-28T04:43:19.336Z,78432.63
2023-11-28T04:45:46.011Z,78430.53
2023-11-28T04:48:12.395Z,78436.78
2023-11-28T04:50:38.957Z,78432.63
2023-11-28T04:53:05.390Z,78445.09
2023-11-28T04:55:31.883Z,78449.25
2023-11-28T04:57:58.271Z,78447.16
2023-11-28T05:00:24.783Z,78436.78
2023-11-28T05:02:51.434Z,78449.25
2023-11-28T05:05:18.171Z,78451.31
2023-11-28T05:07:44.638Z,78447.16
2023-11-28T05:10:11.126Z,78449.25
2023-11-28T05:12:37.624Z,78453.41
2023-11-28T05:15:05.072Z,78459.63
2023-11-28T05:17:31.675Z,78467.97
2023-11-28T05:19:58.131Z,78470.03
2023-11-28T05:22:24.518Z,78453.41
2023-11-28T05:24:50.930Z,78449.25
2023-11-28T05:27:17.345Z,78457.56
2023-11-28T05:29:43.759Z,78453.41
2023-11-28T05:32:10.260Z,78459.63
2023-11-28T05:34:36.781Z,78457.56
2023-11-28T05:37:03.243Z,78461.72
2023-11-28T05:39:29.698Z,78465.88
2023-11-28T05:41:56.296Z,78467.97
2023-11-28T05:44:22.716Z,78467.97
2023-11-28T05:46:49.562Z,78482.50
2023-11-28T05:49:16.231Z,78486.66
2023-11-28T05:51:42.939Z,78488.75
2023-11-28T05:54:09.996Z,78494.97
2023-11-28T05:56:37.836Z,78503.28
2023-11-28T05:59:04.342Z,78497.06
2023-11-28T06:01:30.866Z,78503.28
2023-11-28T06:03:57.419Z,78515.75
2023-11-28T06:06:23.802Z,78515.75
2023-11-28T06:08:50.269Z,78517.84
2023-11-28T06:11:17.037Z,78519.91
2023-11-28T06:13:43.595Z,78530.31
2023-11-28T06:16:10.434Z,78528.22
2023-11-28T06:18:37.147Z,78542.78
2023-11-28T06:21:06.881Z,78553.16
2023-11-28T06:23:33.306Z,78567.72
2023-11-28T06:25:59.774Z,78576.03
2023-11-28T06:28:26.154Z,78584.34
2023-11-28T06:30:52.638Z,78598.88
2023-11-28T06:33:19.087Z,78605.13
2023-11-28T06:35:45.648Z,78605.13
2023-11-28T06:38:12.076Z,78611.34
2023-11-28T06:40:39.434Z,78621.75
2023-11-28T06:43:05.848Z,78632.13
2023-11-28T06:45:32.308Z,78630.06
2023-11-28T06:47:58.820Z,78636.28
2023-11-28T06:50:25.239Z,78636.28
2023-11-28T06:52:51.657Z,78648.75
2023-11-28T06:55:22.201Z,78659.16
2023-11-28T06:57:49.394Z,78671.63
2023-11-28T07:00:16.613Z,78673.72
2023-11-28T07:02:43.137Z,78690.34
2023-11-28T07:05:09.781Z,78688.25
2023-11-28T07:07:36.244Z,78702.81
2023-11-28T07:10:05.029Z,78706.97
2023-11-28T07:12:31.411Z,78702.81
2023-11-28T07:14:57.745Z,78696.56
2023-11-28T07:17:24.371Z,78709.03
2023-11-28T07:19:51.999Z,78717.34
2023-11-28T07:22:18.456Z,78717.34
2023-11-28T07:24:44.835Z,78715.28
2023-11-28T07:27:11.293Z,78715.28
2023-11-28T07:29:37.688Z,78711.13
2023-11-28T07:32:04.532Z,78713.19
2023-11-28T07:34:31.031Z,78711.13
2023-11-28T07:36:57.450Z,78700.72
2023-11-28T07:39:23.796Z,78698.66
2023-11-28T07:41:50.125Z,78696.56
2023-11-28T07:44:16.575Z,78702.81
2023-11-28T07:46:43.009Z,78702.81
2023-11-28T07:49:09.438Z,78698.66
2023-11-28T07:51:37.075Z,78690.34
2023-11-28T07:54:03.578Z,78682.03
2023-11-28T07:56:30.115Z,78677.88
2023-11-28T07:58:56.669Z,78665.38
2023-11-28T08:01:23.120Z,78652.91
2023-11-28T08:03:49.891Z,78642.53
2023-11-28T08:06:18.678Z,78636.28
2023-11-28T08:08:45.134Z,78611.34
2023-11-28T08:11:11.586Z,78594.72
2023-11-28T08:13:38.126Z,78584.34
2023-11-28T08:16:04.990Z,78571.88
2023-11-28T08:18:36.022Z,78551.09
2023-11-28T08:21:08.539Z,78540.69
2023-11-28T08:23:35.215Z,78526.16
2023-11-28T08:26:01.783Z,78497.06
2023-11-28T08:28:28.580Z,78476.25
2023-11-28T08:30:54.987Z,78467.97
2023-11-28T08:33:21.580Z,78436.78
2023-11-28T08:35:48.037Z,78424.31
2023-11-28T08:38:14.641Z,78420.16
2023-11-28T08:40:41.124Z,78397.28
2023-11-28T08:43:07.607Z,78378.59
2023-11-28T08:45:34.049Z,78378.59
2023-11-28T08:48:02.644Z,78372.34
2023-11-28T08:50:29.090Z,78339.09
2023-11-28T08:52:55.725Z,78270.53
2023-11-28T08:55:22.137Z,78108.44
2023-11-28T08:57:48.552Z,78041.94
2023-11-28T09:00:15.451Z,77884.00
2023-11-28T09:02:41.938Z,77732.31
2023-11-28T09:05:08.629Z,77645.06
2023-11-28T09:07:35.047Z,77534.94
2023-11-28T09:10:01.431Z,77401.97
2023-11-28T09:12:27.870Z,77300.16
2023-11-28T09:14:56.588Z,77339.63
2023-11-28T09:17:23.847Z,77271.06
2023-11-28T09:19:50.540Z,77264.84
2023-11-28T09:22:17.106Z,77306.38
2023-11-28T09:24:43.814Z,77165.09
2023-11-28T09:27:10.517Z,77052.94
2023-11-28T09:29:37.076Z,77104.88
2023-11-28T09:32:03.727Z,76990.59
2023-11-28T09:34:32.293Z,76926.19
2023-11-28T09:36:58.667Z,77057.06
2023-11-28T09:39:25.151Z,76915.81
2023-11-28T09:41:51.900Z,76892.97
2023-11-28T09:44:18.510Z,76857.66
2023-11-28T09:46:50.522Z,76691.47
2023-11-28T09:49:22.149Z,76662.38
2023-11-28T09:51:50.185Z,76645.75
2023-11-28T09:54:17.247Z,76703.91
2023-11-28T09:56:48.244Z,76708.06
2023-11-28T09:59:16.355Z,76593.81
2023-11-28T10:01:46.897Z,76602.13
2023-11-28T10:04:13.444Z,76627.06
2023-11-28T10:06:43.733Z,76664.44
2023-11-28T10:09:11.602Z,76554.34
2023-11-28T10:11:38.934Z,76560.59
2023-11-28T10:14:05.738Z,76492.03
2023-11-28T10:16:42.287Z,76423.50
2023-11-28T10:19:08.744Z,76398.56
2023-11-28T10:21:35.376Z,76429.72
2023-11-28T10:24:02.508Z,76435.94
2023-11-28T10:26:29.017Z,76446.34
2023-11-28T10:28:55.478Z,76679.00
2023-11-28T10:31:21.902Z,76552.28
2023-11-28T10:33:48.471Z,76535.66
2023-11-28T10:36:17.759Z,76477.50
2023-11-28T10:38:44.443Z,76396.47
2023-11-28T10:41:10.836Z,76402.72
2023-11-28T10:43:37.308Z,76479.56
2023-11-28T10:46:06.203Z,76381.94
2023-11-28T10:48:32.704Z,76548.13
2023-11-28T10:51:00.299Z,76600.06
2023-11-28T10:53:29.973Z,76533.59
2023-11-28T10:56:01.296Z,76462.97
2023-11-28T10:58:29.573Z,76438.03
2023-11-28T11:00:57.116Z,76649.91
2023-11-28T11:03:24.858Z,76766.25
2023-11-28T11:05:51.655Z,76724.69
2023-11-28T11:08:19.683Z,77028.00
2023-11-28T11:10:46.730Z,77019.69
2023-11-28T11:13:50.783Z,77169.25
2023-11-28T11:16:39.294Z,77133.94
2023-11-28T11:19:07.314Z,77009.28
2023-11-28T11:21:56.245Z,76928.28
2023-11-28T11:24:22.732Z,76735.06
2023-11-28T11:26:49.904Z,76597.97
2023-11-28T11:29:25.275Z,76492.03
2023-11-28T11:31:53.099Z,76415.19
2023-11-28T11:34:41.588Z,76379.88
2023-11-28T11:37:09.907Z,76342.47
2023-11-28T11:39:38.097Z,76192.94
2023-11-28T11:42:08.310Z,76168.00
2023-11-28T11:44:35.694Z,76143.09
2023-11-28T11:47:17.241Z,76155.53
2023-11-28T11:49:45.407Z,76342.47
2023-11-28T11:52:13.707Z,76471.25
2023-11-28T11:54:43.879Z,76282.25
2023-11-28T11:57:10.850Z,76259.41
2023-11-28T11:59:38.024Z,76172.16
2023-11-28T12:02:04.828Z,76215.78
2023-11-28T12:04:32.898Z,76095.31
2023-11-28T12:07:03.003Z,76232.41
2023-11-28T12:09:29.585Z,76161.78
2023-11-28T12:11:56.242Z,76219.94
2023-11-28T12:14:22.949Z,76332.09
2023-11-28T12:16:49.580Z,76066.22
2023-11-28T12:19:16.072Z,76195.00
2023-11-28T12:21:42.903Z,76211.63
2023-11-28T12:24:09.612Z,76128.53
2023-11-28T12:26:36.381Z,76064.16
2023-11-28T12:29:02.973Z,76184.63
2023-11-28T12:31:30.030Z,76147.25
2023-11-28T12:33:56.543Z,76165.94
2023-11-28T12:36:23.257Z,76209.53
2023-11-28T12:38:51.978Z,76458.81
2023-11-28T12:41:20.342Z,76745.47
2023-11-28T12:43:53.039Z,77094.47
2023-11-28T12:46:19.630Z,77250.28
2023-11-28T12:48:46.025Z,77318.84
2023-11-28T12:51:12.409Z,77003.06
2023-11-28T12:53:38.814Z,76743.38
2023-11-28T12:56:08.131Z,76523.19
2023-11-28T12:58:37.110Z,76456.72
2023-11-28T13:01:03.676Z,76487.88
2023-11-28T13:03:30.107Z,76419.34
2023-11-28T13:05:56.627Z,76375.72
2023-11-28T13:08:23.086Z,76325.88
2023-11-28T13:10:49.610Z,76425.56
2023-11-28T13:13:18.159Z,76448.41
2023-11-28T13:15:45.144Z,76446.34
2023-11-28T13:18:11.739Z,76523.19
2023-11-28T13:20:38.325Z,76581.34
2023-11-28T13:23:04.911Z,76554.34
2023-11-28T13:25:31.295Z,76743.38
2023-11-28T13:27:57.743Z,76851.41
2023-11-28T13:30:24.461Z,76608.38
2023-11-28T13:32:50.901Z,76633.28
2023-11-28T13:35:18.387Z,76521.13
2023-11-28T13:37:46.505Z,76573.06
2023-11-28T13:40:13.164Z,76639.53
2023-11-28T13:42:39.654Z,76502.41
2023-11-28T13:45:08.152Z,76384.03
2023-11-28T13:47:34.571Z,76423.50
2023-11-28T13:50:02.099Z,76442.19
2023-11-28T13:52:28.556Z,76498.28
2023-11-28T13:54:55.016Z,76872.19
2023-11-28T13:57:22.754Z,77090.31
2023-11-28T13:59:49.528Z,77347.94
2023-11-28T14:02:16.039Z,77510.00
2023-11-28T14:04:42.982Z,77628.44
2023-11-28T14:07:09.496Z,77711.53
2023-11-28T14:09:35.914Z,77736.47
2023-11-28T14:12:02.344Z,77773.88
2023-11-28T14:14:31.119Z,77786.34
2023-11-28T14:17:01.234Z,77838.31
2023-11-28T14:19:27.748Z,77821.69
2023-11-28T14:21:54.487Z,77827.91
2023-11-28T14:24:20.918Z,77773.88
2023-11-28T14:26:47.329Z,77790.50
2023-11-28T14:29:13.877Z,77796.75
2023-11-28T14:31:40.478Z,77834.13
2023-11-28T14:34:07.174Z,77904.78
2023-11-28T14:36:34.811Z,77956.75
2023-11-28T14:39:01.280Z,78002.47
2023-11-28T14:41:27.732Z,78017.00
2023-11-28T14:43:54.190Z,78056.47
2023-11-28T14:46:20.720Z,78073.09
2023-11-28T14:48:47.217Z,78095.97
2023-11-28T14:51:18.295Z,78118.81
2023-11-28T14:53:45.149Z,78120.91
2023-11-28T14:56:11.802Z,78137.53
2023-11-28T14:58:38.207Z,78139.59
2023-11-28T15:01:05.093Z,78164.53
2023-11-28T15:03:31.682Z,78179.09
2023-11-28T15:05:58.562Z,78204.03
2023-11-28T15:08:30.967Z,78216.50
2023-11-28T15:10:59.060Z,78218.56
2023-11-28T15:13:25.624Z,78226.88
2023-11-28T15:15:51.985Z,78231.03
2023-11-28T15:18:18.641Z,78245.59
2023-11-28T15:20:45.302Z,78255.97
2023-11-28T15:23:12.325Z,78258.06
2023-11-28T15:25:38.957Z,78280.91
2023-11-28T15:28:05.327Z,78310.00
2023-11-28T15:30:31.745Z,78305.84
2023-11-28T15:32:58.431Z,78326.63
2023-11-28T15:35:25.029Z,78312.09
2023-11-28T15:37:55.579Z,78305.84
2023-11-28T15:40:27.519Z,78341.19
2023-11-28T15:42:54.202Z,78343.25
2023-11-28T15:45:20.609Z,78386.91
2023-11-28T15:47:47.652Z,78388.97
2023-11-28T15:50:14.243Z,78393.13
2023-11-28T15:52:40.785Z,78378.59
2023-11-28T15:55:07.887Z,78391.06
2023-11-28T15:57:34.285Z,78411.84
2023-11-28T16:00:07.384Z,78399.38
2023-11-28T16:02:34.432Z,78391.06
2023-11-28T16:05:01.650Z,78391.06
2023-11-28T16:07:28.642Z,78399.38
2023-11-28T16:09:55.168Z,78411.84
2023-11-28T16:12:21.882Z,78422.22
2023-11-28T16:14:50.015Z,78407.69
2023-11-28T16:17:17.236Z,78407.69
2023-11-28T16:19:44.486Z,78418.06
2023-11-28T16:22:10.885Z,78432.63
2023-11-28T16:24:37.275Z,78428.47
2023-11-28T16:27:03.964Z,78432.63
2023-11-28T16:29:30.351Z,78447.16
2023-11-28T16:31:56.814Z,78453.41
2023-11-28T16:34:23.277Z,78455.47
2023-11-28T16:36:49.753Z,78478.34
2023-11-28T16:39:16.214Z,78472.09
2023-11-28T16:41:42.766Z,78478.34
2023-11-28T16:44:09.513Z,78465.88
2023-11-28T16:46:36.057Z,78455.47
2023-11-28T16:49:02.610Z,78467.97
2023-11-28T16:51:29.252Z,78472.09
2023-11-28T16:53:55.655Z,78492.91
2023-11-28T16:56:23.142Z,78474.19
2023-11-28T16:58:49.533Z,78474.19
2023-11-28T17:01:16.174Z,78463.81
2023-11-28T17:03:42.777Z,78488.75
2023-11-28T17:06:10.171Z,78499.13
2023-11-28T17:08:36.894Z,78492.91
2023-11-28T17:11:03.387Z,78478.34
2023-11-28T17:13:29.973Z,78492.91
2023-11-28T17:15:56.437Z,78494.97
2023-11-28T17:18:23.291Z,78492.91
2023-11-28T17:20:50.290Z,78503.28
2023-11-28T17:23:16.772Z,78503.28
2023-11-28T17:25:43.423Z,78494.97
2023-11-28T17:28:10.096Z,78497.06
2023-11-28T17:30:36.610Z,78492.91
2023-11-28T17:33:03.256Z,78492.91
2023-11-28T17:35:29.805Z,78503.28
2023-11-28T17:37:56.211Z,78488.75
2023-11-28T17:40:23.304Z,78490.81
2023-11-28T17:42:50.474Z,78492.91
2023-11-28T17:45:17.027Z,78486.66
2023-11-28T17:47:43.573Z,78503.28
2023-11-28T17:50:10.529Z,78501.22
2023-11-28T17:52:37.300Z,78494.97
2023-11-28T17:55:04.305Z,78494.97
2023-11-28T17:57:30.730Z,78480.44
2023-11-28T17:59:57.120Z,78467.97
2023-11-28T18:02:23.647Z,78474.19
2023-11-28T18:04:51.242Z,78484.59
2023-11-28T18:07:18.710Z,78476.25
2023-11-28T18:09:45.405Z,78463.81
2023-11-28T18:12:12.059Z,78474.19
2023-11-28T18:14:39.468Z,78470.03
2023-11-28T18:17:07.073Z,78476.25
2023-11-28T18:19:33.748Z,78470.03
2023-11-28T18:22:00.526Z,78457.56
2023-11-28T18:24:27.086Z,78453.41
2023-11-28T18:26:53.543Z,78455.47
2023-11-28T18:29:21.175Z,78463.81
2023-11-28T18:31:47.777Z,78465.88
2023-11-28T18:34:15.142Z,78453.41
2023-11-28T18:36:41.850Z,78449.25
2023-11-28T18:39:08.531Z,78440.94
2023-11-28T18:41:39.088Z,78436.78
2023-11-28T18:44:07.427Z,78422.22
2023-11-28T18:46:34.757Z,78388.97
2023-11-28T18:49:01.322Z,78372.34
2023-11-28T18:51:28.895Z,78349.50
2023-11-28T18:53:55.387Z,78332.88
2023-11-28T18:56:23.499Z,78320.41
2023-11-28T18:58:50.836Z,78299.63
2023-11-28T19:01:20.798Z,78295.47
2023-11-28T19:03:48.522Z,78293.38
2023-11-28T19:06:15.722Z,78278.84
2023-11-28T19:08:43.438Z,78264.28
2023-11-28T19:11:09.899Z,78255.97
2023-11-28T19:13:36.317Z,78253.91
2023-11-28T19:16:02.821Z,78253.91
2023-11-28T19:18:29.460Z,78258.06
2023-11-28T19:20:56.154Z,78278.84
2023-11-28T19:23:22.613Z,78285.06
2023-11-28T19:25:48.990Z,78280.91
2023-11-28T19:28:15.458Z,78291.31
2023-11-28T19:30:41.926Z,78295.47
2023-11-28T19:33:08.297Z,78312.09
2023-11-28T19:35:35.089Z,78297.53
2023-11-28T19:38:01.605Z,78280.91
2023-11-28T19:40:28.048Z,78299.63
2023-11-28T19:42:54.409Z,78303.78
2023-11-28T19:45:21.201Z,78312.09
2023-11-28T19:47:47.915Z,78283.00
2023-11-28T19:50:14.565Z,78293.38
2023-11-28T19:52:41.144Z,78280.91
2023-11-28T19:55:07.722Z,78299.63
2023-11-28T19:57:34.627Z,78278.84
2023-11-28T20:00:01.108Z,78266.38
2023-11-28T20:02:27.604Z,78266.38
2023-11-28T20:04:55.025Z,78274.69
2023-11-28T20:07:21.504Z,78283.00
2023-11-28T20:09:47.918Z,78280.91
2023-11-28T20:12:14.433Z,78266.38
2023-11-28T20:14:43.597Z,78274.69
2023-11-28T20:17:10.047Z,78268.44
2023-11-28T20:19:36.482Z,78255.97
2023-11-28T20:22:03.169Z,78272.59
2023-11-28T20:24:29.587Z,78262.22
2023-11-28T20:26:56.010Z,78249.75
2023-11-28T20:29:22.520Z,78245.59
2023-11-28T20:31:48.891Z,78245.59
2023-11-28T20:34:15.367Z,78249.75
2023-11-28T20:36:41.758Z,78241.44
2023-11-28T20:39:08.259Z,78241.44
2023-11-28T20:41:34.817Z,78249.75
2023-11-28T20:44:01.296Z,78253.91
2023-11-28T20:46:27.754Z,78262.22
2023-11-28T20:48:54.304Z,78245.59
2023-11-28T20:51:21.233Z,78255.97
2023-11-28T20:53:47.666Z,78260.13
2023-11-28T20:56:14.457Z,78268.44
2023-11-28T20:58:40.846Z,78262.22
2023-11-28T21:01:07.293Z,78283.00
2023-11-28T21:03:33.683Z,78307.94
2023-11-28T21:06:00.386Z,78312.09
2023-11-28T21:08:29.605Z,78324.56
2023-11-28T21:10:55.984Z,78332.88
2023-11-28T21:13:22.593Z,78341.19
2023-11-28T21:15:49.030Z,78347.41
2023-11-28T21:18:15.647Z,78343.25
2023-11-28T21:20:44.526Z,78347.41
2023-11-28T21:23:10.941Z,78353.66
2023-11-28T21:25:38.034Z,78355.72
2023-11-28T21:28:04.673Z,78359.88
2023-11-28T21:30:31.237Z,78364.03
2023-11-28T21:32:57.682Z,78357.81
2023-11-28T21:35:25.485Z,78364.03
2023-11-28T21:37:52.089Z,78364.03
2023-11-28T21:40:19.075Z,78364.03
2023-11-28T21:42:45.583Z,78378.59
2023-11-28T21:45:11.987Z,78382.75
2023-11-28T21:47:38.528Z,78380.66
2023-11-28T21:50:10.016Z,78378.59
2023-11-28T21:52:38.025Z,78368.19
2023-11-28T21:55:05.108Z,78374.44
2023-11-28T21:57:31.465Z,78368.19
2023-11-28T21:59:58.014Z,78366.13
2023-11-28T22:02:24.528Z,78351.56
2023-11-28T22:04:51.035Z,78353.66
2023-11-28T22:07:17.470Z,78353.66
2023-11-28T22:09:43.815Z,78347.41
2023-11-28T22:12:10.206Z,78349.50
2023-11-28T22:14:36.628Z,78347.41
2023-11-28T22:17:03.295Z,78364.03
2023-11-28T22:19:29.686Z,78370.28
2023-11-28T22:21:56.034Z,78368.19
2023-11-28T22:24:22.416Z,78359.88
2023-11-28T22:26:48.808Z,78347.41
2023-11-28T22:29:15.671Z,78347.41
2023-11-28T22:31:42.272Z,78341.19
2023-11-28T22:34:08.948Z,78341.19
2023-11-28T22:36:35.547Z,78345.34
2023-11-28T22:39:01.936Z,78343.25
2023-11-28T22:41:28.350Z,78343.25
2023-11-28T22:43:54.829Z,78343.25
2023-11-28T22:46:21.196Z,78355.72
2023-11-28T22:48:47.605Z,78361.97
2023-11-28T22:51:14.269Z,78372.34
2023-11-28T22:53:40.662Z,78372.34
2023-11-28T22:56:09.068Z,78397.28
2023-11-28T22:58:35.489Z,78393.13
2023-11-28T23:01:02.014Z,78395.22
2023-11-28T23:03:28.555Z,78397.28
2023-11-28T23:05:55.060Z,78384.81
2023-11-28T23:08:21.537Z,78386.91
2023-11-28T23:10:47.882Z,78382.75
2023-11-28T23:13:14.301Z,78384.81
2023-11-28T23:15:40.671Z,78386.91
2023-11-28T23:18:07.149Z,78372.34
2023-11-28T23:20:33.528Z,78378.59
2023-11-28T23:22:59.951Z,78380.66
2023-11-28T23:25:27.612Z,78386.91
2023-11-28T23:27:54.075Z,78378.59
2023-11-28T23:30:20.482Z,78366.13
2023-11-28T23:32:47.467Z,78351.56
2023-11-28T23:35:14.397Z,78345.34
2023-11-28T23:37:40.810Z,78341.19
2023-11-28T23:40:08.360Z,78332.88
2023-11-28T23:42:43.418Z,78326.63
2023-11-28T23:45:13.625Z,78328.72
2023-11-28T23:47:40.370Z,78332.88
2023-11-28T23:50:07.344Z,78322.47
2023-11-28T23:52:33.735Z,78322.47
2023-11-28T23:55:00.170Z,78314.16
2023-11-28T23:57:26.546Z,78303.78
2023-11-28T23:59:52.958Z,78299.63
